Wadesville, Indiana
Current Conditions -  °F | °C
As of 10:54 PM on Friday 21 Nov 2014 (Local Time) from KEVV Reporting Station
Overcast Overcast  
Wind Chill: 39°   Ceiling: 4900
Heat Index: 43°   Visibility: 10mi
Dew Point: 21°   Wind: 6mph
Humidity: 42%   Direction: 130°SE
Pressure: 30.32"   Gusts: NA
Location:  38.1°N, 87.79°W
Report Text: KEVV 220454Z AUTO 13005KT 10SM FEW037 OVC049 06/M06 A3032 RMK AO2 SLP270 T00611061
Loading
Personal Weather Stations






























Interactive Weather Map New forecast layout! Learn more

10-Day Weather Forecast

Advertisements
Track Severe Weather on mobile